Accueil
METAR-TAF:

METAR-TAF

Aéroports :

Flessingue, Pays-Bas

latitude: 51-27N, longitude: 3-36E, altitude: 10 m

Observation

Le bulletin a été fait il y a 34 minutes, à 17:25 UTC
Vent 9 kt de nord/nord-est, variant entre nord et nord-est
Température 9°C
Humidité 100%
Pression 1019 hPa
Visibilité: 3200 m
brume

METAR: EHFS 261725Z AUTO 02009KT 350V050 3200 BR OVC002/// 09/09 Q1019

Heure: 18:59 (17:59 UTC)


TAF: absent

Observations et prévisions météorologiques de plus de 4000 aéroports (messages METAR et TAF).

Les stations disponibles sont représentées par des disques jaunes et rouges sur la carte.

Passer la souris dessus pour voir le nom de la station.

Cliquer dessus pour voir les observations et prévisions météorologiques.

Pour changer de carte: cliquez sur les boutons verts avec une croix noire pour zoomer, sur le bouton vert avec un tiret pour effectuer un zoom arrière, ou sur les flèches vertes pour les cartes adjacentes.


METAR-TAF: